Latest Observation

42 Stations

15 Minute Data | America/Los_Angeles
as of 8/31/26 5:07 AM PDT
Station Date Time Temp (°F) RH (%) Dew Pt (°F) Wind Spd (mph) Wind Dir (°) Wind Gust (mph) Latest Rain (In) Daily Rain (In) Daily Min Temp (°F) Daily Max Temp (°F) Daily Max Wind (mph)
Elk Mt. Farm 8/13/26 1500 85.6   7.4 - - - - - - - 51.4   1.1 85.6   7.4 -
Upper Lake 8/31/26 0500 47.5   0.7 88   4 44.2   0.3 0.0 N | 0 0.0   1.0 0.00 0.00 47.1   0.6 52.6   0.4 1.9   0.4
Scotts Valley 8/31/26 0500 42.7   0.9 87   4 39.2   0.3 0.2 SSE | 167 1.0   0.0 0.00 0.00 42.7   1.0 48.8   2.1 1.0   0.1
Scotts Valley-South (Bella Vista) 8/31/26 0500 49.0   2.5 68   12 38.9   1.9 0.0 SW | 218 1.1   0.1 0.00 0.00 48.2   1.8 54.2   3.7 6.4   3.2
Kelseyville 8/31/26 0500 48.2   1.5 84   0 43.7   1.5 0.9 WSW | 238 2.4   0.7 0.00 0.00 47.6   1.2 54.0   2.5 2.8   0.4
Kelseyville Remote 8/31/26 0500 49.8   2.0 70   3 40.5   0.9 - - - 0.00 0.00 48.9   1.1 57.6   3.1 -
Kelseyville (Clark Drive) 8/31/26 0500 45.7   0.5 - - - - - 0.00 0.00 45.4   0.5 52.2   1.7 -
Kelsey Bench (Oaklea) 8/31/26 0500 53.3   0.2 66   1 42.3   0.1 3.6 SSW | 199 4.3   0.7 0.00 0.00 52.3   0.5 60.1   3.9 5.2   0.7
Smith Lane (Kelseyville-South) 8/31/26 0500 46.4   1.9 84   2 42.0   1.4 0.5 S | 186 2.6   2.6 0.00 0.00 46.4   1.9 53.8   4.4 2.6   0.0
Bell Hill-West 8/31/26 0500 49.3   0.8 86   2 45.4   0.3 2.9 SSW | 193 3.8   0.7 0.00 0.00 49.2   1.0 54.8   1.4 4.1   0.3
High Valley Ridgeline (Brassfield) 8/31/26 0500 65.9   4.2 43   10 43.0   1.6 3.4 NE | 48 4.6   2.2 0.00 0.00 65.2   4.2 68.8   5.7 6.1   1.0
Wight Way (Adobe Creek) 8/31/26 0500 44.8   0.7 85   3 40.6   0.1 1.2 SE | 140 1.6   0.4 0.00 0.00 44.8   0.7 50.9   0.8 2.8   0.1
Ridgeline Top (Brassfield) 8/31/26 0500 65.6   2.4 - - - - - - - 65.3   4.6 67.8   3.2 -
Ridgeline Low (Brassfield) 8/31/26 0500 58.4   0.7 - - - - - - - 58.0   1.1 64.4   1.5 -
Long Valley (Shannon) 6/29/26 1400 84.9   4.6 25   1 44.9   3.2 2.9 ENE | 75 10.2   0.4 0.00 0.00 46.4   0.4 86.9   6.5 13.7   1.8
High Valley Winery 8/31/26 0500 46.2   0.9 75   6 38.7   1.1 0.5 W | 271 1.8   0.3 0.00 0.00 46.1   1.1 54.5   3.5 3.3   0.7
Round Mtn Rd. 8/30/26 1145 81.7   3.0 - - - - - - - 49.8   2.2 84.0   4.6 -
Circle O 8/31/26 0500 49.8   1.7 - - - - - - - 48.9   1.0 54.3   2.7 -
Robertsbridge Vineyards 8/31/26 0500 49.1   1.6 75   7 41.6   0.8 - - - - - 48.6   2.3 53.9   4.6 -
Urgency Vineyard 8/31/26 0500 46.4   0.1 83   2 41.6   0.6 0.6 SW | 228 2.0   1.2 0.00 0.00 46.4   0.1 54.0   3.2 3.4   0.7
Red Hills (Beckstoffer) 8/31/26 0500 41.8   1.3 76   5 34.9   2.8 - - - 0.00 0.00 41.5   1.5 50.6   6.7 -
Winters (Shannon) 8/31/26 0500 41.0   2.1 85   2 37.0   1.5 0.0 N | 0 0.0   2.3 0.00 0.00 41.0   1.4 47.6   1.3 1.2   1.4
Secret Pond (Shannon) 8/31/26 0500 43.7   2.3 82   2 38.7   1.8 0.0 N | 0 0.0   0.0 0.00 0.00 43.6   2.3 50.8   10.3 1.1   2.1
Rolling Knolls (Shannon) 8/31/26 0500 45.3   0.7 87   1 41.6   0.3 0.0 N | 0 0.0   1.4 0.00 0.00 45.2   0.7 52.9   0.2 2.8   0.1
Lower Lake 8/31/26 0500 52.8   0.5 70   3 43.2   0.6 2.7 WSW | 238 3.6   0.8 0.00 0.00 52.8   0.6 58.9   0.7 5.3   0.1
Adamson Ranch 8/31/26 0500 47.5   0.9 89   3 44.4   1.8 0.3 S | 177 1.3   1.3 0.00 0.00 47.1   0.9 53.2   2.7 2.0   0.0
Middletown (Diamond D) 8/31/26 0500 46.6   0.6 89   6 43.5   1.1 0.3 N | 355 1.3   2.2 0.00 0.00 46.2   0.9 54.9   1.8 2.8   2.5
Middletown-West (Domaine Helena) 8/31/26 0500 44.6   1.0 90   5 41.9   0.5 0.2 WSW | 237 1.3   2.0 0.00 0.00 44.1   0.5 52.8   3.2 2.6   0.7
Middletown-South 8/31/26 0500 48.6   0.1 88   6 45.4   2.0 0.2 S | 183 1.6   0.9 0.00 0.00 48.3   0.1 54.2   1.8 2.5   0.3
Jim Davis (Langtry) 8/31/26 0500 54.6   0.0 80   11 48.5   3.9 0.4 NE | 36 1.8   3.1 0.00 0.00 53.3   0.9 62.4   0.4 2.6   3.0
Napa Valley Basin 8/31/26 0500 45.8   0.5 89   2 42.6   0.1 0.4 N | 350 1.0   0.5 0.00 0.00 45.3   0.3 52.3   0.8 2.8   0.5
Lower Bohn 8/31/26 0500 45.8   1.1 66   4 35.0   0.6 0.7 WNW | 301 2.1   0.9 0.00 0.00 44.8   1.0 52.4   0.2 3.3   0.8
Upper Bohn-North 8/31/26 0500 51.6   2.2 94   25 49.9   6.1 0.5 SSE | 155 1.2   0.4 0.00 0.00 50.3   2.0 57.2   0.5 2.6   0.1
Snell Peak Blk#9 8/31/26 0500 55.1   2.4 84   22 50.3   5.8 2.7 SSW | 202 5.8   3.8 0.00 0.00 55.1   2.5 62.2   2.6 6.1   2.3
Coyote Lake West 8/31/26 0500 49.8   3.8 85   13 45.5   0.6 0.0 N | 0 0.0   1.9 0.00 0.00 49.8   2.5 56.8   1.0 1.6   0.9
Coyote Lake Northeast 8/31/26 0500 53.6   0.8 82   12 48.3   3.4 - - - - - 52.2   1.8 59.6   0.8 -
Coyote Lake East 8/31/26 0500 46.7   0.2 88   1 43.3   0.2 - - - - - 46.7   0.2 53.1   0.5 -
Morgan Valley 8/31/26 0500 64.1   2.5 53   3 46.5   0.8 1.1 NW | 316 3.1   4.2 0.00 0.00 63.9   0.4 67.6   0.9 8.6   0.1
Mine Pit North 8/31/26 0500 59.3   0.2 70   11 49.7   4.4 5.5 SW | 221 8.6   4.8 - - 58.8   0.5 63.2   0.4 9.3   4.5
Mine Pit South 8/31/26 0500 59.3   2.9 67   12 48.5   2.6 5.5 SE | 130 6.3   5.6 0.00 0.00 59.0   0.2 66.0   2.3 6.3   7.1
Cow Mountain 8/31/26 0500 67.8   1.3 - - 2.8 WSW | 253 3.9   2.8 0.00 0.00 67.3   3.6 69.7   1.2 6.4   7.9
Ukiah-SE (Ruddick) 8/31/26 0500 47.9   1.1 81   1 42.4   0.9 0.6 SSW | 206 2.9   2.9 0.00 0.00 47.4   1.0 53.3   0.8 2.9   0.0
Max     67.8 94 50.3 5.5 - 8.6 0.00 0.00 67.3 69.7 9.3
Avg     50.5 79 43.0 1.3 - 2.4 0.00 - - - -
Min     41.0 43 34.9 0.0 - 0.0 0.00 0.00 41.0 47.6 1.0